sensor_id;sensor_type;location;lat;lon;timestamp;temperature;humidity
7307;DHT22;3694;48.732;9.248;2022-09-09T00:03:53;12.00;99.90
7307;DHT22;3694;48.732;9.248;2022-09-09T00:06:24;12.10;99.90
7307;DHT22;3694;48.732;9.248;2022-09-09T00:09:06;12.00;99.90
7307;DHT22;3694;48.732;9.248;2022-09-09T00:11:43;12.00;99.90
7307;DHT22;3694;48.732;9.248;2022-09-09T00:14:16;12.00;99.90
7307;DHT22;3694;48.732;9.248;2022-09-09T00:16:50;11.90;99.90
7307;DHT22;3694;48.732;9.248;2022-09-09T00:19:27;12.00;99.90
7307;DHT22;3694;48.732;9.248;2022-09-09T00:22:12;12.10;99.90
7307;DHT22;3694;48.732;9.248;2022-09-09T00:29:53;12.00;99.90
7307;DHT22;3694;48.732;9.248;2022-09-09T00:32:20;12.10;99.90
7307;DHT22;3694;48.732;9.248;2022-09-09T00:35:01;12.00;99.90
7307;DHT22;3694;48.732;9.248;2022-09-09T00:37:28;12.10;99.90
7307;DHT22;3694;48.732;9.248;2022-09-09T00:39:59;12.10;99.90
7307;DHT22;3694;48.732;9.248;2022-09-09T00:42:42;12.20;99.90
7307;DHT22;3694;48.732;9.248;2022-09-09T00:47:53;12.40;99.90
7307;DHT22;3694;48.732;9.248;2022-09-09T00:51:08;12.50;99.90
7307;DHT22;3694;48.732;9.248;2022-09-09T00:56:19;12.70;99.90
7307;DHT22;3694;48.732;9.248;2022-09-09T00:59:47;12.80;99.90
7307;DHT22;3694;48.732;9.248;2022-09-09T01:01:47;13.10;99.90
7307;DHT22;3694;48.732;9.248;2022-09-09T01:04:17;13.20;99.90
7307;DHT22;3694;48.732;9.248;2022-09-09T01:06:45;13.40;99.90
7307;DHT22;3694;48.732;9.248;2022-09-09T01:09:37;13.40;99.90
7307;DHT22;3694;48.732;9.248;2022-09-09T01:12:15;13.40;99.90
7307;DHT22;3694;48.732;9.248;2022-09-09T01:14:52;13.40;99.90
7307;DHT22;3694;48.732;9.248;2022-09-09T01:17:31;13.30;99.90
7307;DHT22;3694;48.732;9.248;2022-09-09T01:20:02;13.30;99.90
7307;DHT22;3694;48.732;9.248;2022-09-09T01:25:22;13.30;99.90
7307;DHT22;3694;48.732;9.248;2022-09-09T01:27:58;13.20;99.90
7307;DHT22;3694;48.732;9.248;2022-09-09T01:30:26;13.20;99.90
7307;DHT22;3694;48.732;9.248;2022-09-09T01:32:57;13.30;99.90
7307;DHT22;3694;48.732;9.248;2022-09-09T01:37:56;13.20;99.90
7307;DHT22;3694;48.732;9.248;2022-09-09T01:40:22;13.20;99.90
7307;DHT22;3694;48.732;9.248;2022-09-09T01:42:48;13.20;99.90
7307;DHT22;3694;48.732;9.248;2022-09-09T01:45:14;13.30;99.90
7307;DHT22;3694;48.732;9.248;2022-09-09T01:47:40;13.30;99.90
7307;DHT22;3694;48.732;9.248;2022-09-09T01:50:08;13.20;99.90
7307;DHT22;3694;48.732;9.248;2022-09-09T01:52:36;13.10;99.90
7307;DHT22;3694;48.732;9.248;2022-09-09T01:55:03;13.00;99.90
7307;DHT22;3694;48.732;9.248;2022-09-09T01:57:34;12.90;99.90
7307;DHT22;3694;48.732;9.248;2022-09-09T02:00:07;13.00;99.90
7307;DHT22;3694;48.732;9.248;2022-09-09T02:03:03;13.10;99.90
7307;DHT22;3694;48.732;9.248;2022-09-09T02:05:37;13.10;99.90
7307;DHT22;3694;48.732;9.248;2022-09-09T02:08:11;13.10;99.90
7307;DHT22;3694;48.732;9.248;2022-09-09T02:10:46;13.20;99.90
7307;DHT22;3694;48.732;9.248;2022-09-09T02:13:16;13.40;99.90
7307;DHT22;3694;48.732;9.248;2022-09-09T02:16:00;13.20;99.90
7307;DHT22;3694;48.732;9.248;2022-09-09T02:18:30;13.30;99.90
7307;DHT22;3694;48.732;9.248;2022-09-09T02:20:58;13.30;99.90
7307;DHT22;3694;48.732;9.248;2022-09-09T02:23:25;13.30;99.90
7307;DHT22;3694;48.732;9.248;2022-09-09T02:25:51;13.30;99.90
7307;DHT22;3694;48.732;9.248;2022-09-09T02:28:19;13.30;99.90
7307;DHT22;3694;48.732;9.248;2022-09-09T02:30:48;13.00;99.90
7307;DHT22;3694;48.732;9.248;2022-09-09T02:33:19;13.00;99.90
7307;DHT22;3694;48.732;9.248;2022-09-09T02:35:45;12.90;99.90
7307;DHT22;3694;48.732;9.248;2022-09-09T02:38:13;12.90;99.90
7307;DHT22;3694;48.732;9.248;2022-09-09T02:40:40;12.90;99.90
7307;DHT22;3694;48.732;9.248;2022-09-09T02:43:06;13.10;99.90
7307;DHT22;3694;48.732;9.248;2022-09-09T02:45:53;13.10;99.90
7307;DHT22;3694;48.732;9.248;2022-09-09T02:48:35;13.10;99.90
7307;DHT22;3694;48.732;9.248;2022-09-09T02:54:07;13.00;99.90
7307;DHT22;3694;48.732;9.248;2022-09-09T02:56:40;12.80;99.90
7307;DHT22;3694;48.732;9.248;2022-09-09T02:59:07;12.80;99.90
7307;DHT22;3694;48.732;9.248;2022-09-09T03:01:32;12.70;99.90
7307;DHT22;3694;48.732;9.248;2022-09-09T03:03:58;12.70;99.90
7307;DHT22;3694;48.732;9.248;2022-09-09T03:06:23;12.70;99.90
7307;DHT22;3694;48.732;9.248;2022-09-09T03:08:49;12.60;99.90
7307;DHT22;3694;48.732;9.248;2022-09-09T03:11:16;12.50;99.90
7307;DHT22;3694;48.732;9.248;2022-09-09T03:13:41;12.30;99.90
7307;DHT22;3694;48.732;9.248;2022-09-09T03:16:07;12.40;99.90
7307;DHT22;3694;48.732;9.248;2022-09-09T03:18:32;12.60;99.90
7307;DHT22;3694;48.732;9.248;2022-09-09T03:21:00;12.60;99.90
7307;DHT22;3694;48.732;9.248;2022-09-09T03:23:25;12.70;99.90
7307;DHT22;3694;48.732;9.248;2022-09-09T03:25:51;12.80;99.90
7307;DHT22;3694;48.732;9.248;2022-09-09T03:28:17;12.70;99.90
7307;DHT22;3694;48.732;9.248;2022-09-09T03:30:43;12.70;99.90
7307;DHT22;3694;48.732;9.248;2022-09-09T03:33:09;12.70;99.90
7307;DHT22;3694;48.732;9.248;2022-09-09T03:35:34;12.60;99.90
7307;DHT22;3694;48.732;9.248;2022-09-09T03:38:00;12.60;99.90
7307;DHT22;3694;48.732;9.248;2022-09-09T03:40:26;12.50;99.90
7307;DHT22;3694;48.732;9.248;2022-09-09T03:42:51;12.40;99.90
7307;DHT22;3694;48.732;9.248;2022-09-09T03:45:17;12.40;99.90
7307;DHT22;3694;48.732;9.248;2022-09-09T03:47:42;12.40;99.90
7307;DHT22;3694;48.732;9.248;2022-09-09T03:50:08;12.30;99.90
7307;DHT22;3694;48.732;9.248;2022-09-09T03:52:37;12.30;99.90
7307;DHT22;3694;48.732;9.248;2022-09-09T03:55:03;12.20;99.90
7307;DHT22;3694;48.732;9.248;2022-09-09T03:57:29;12.10;99.90
7307;DHT22;3694;48.732;9.248;2022-09-09T03:59:55;12.00;99.90
7307;DHT22;3694;48.732;9.248;2022-09-09T04:02:20;12.00;99.90
7307;DHT22;3694;48.732;9.248;2022-09-09T04:04:46;12.10;99.90
7307;DHT22;3694;48.732;9.248;2022-09-09T04:07:12;12.10;99.90
7307;DHT22;3694;48.732;9.248;2022-09-09T04:09:38;12.00;99.90
7307;DHT22;3694;48.732;9.248;2022-09-09T04:12:04;12.10;99.90
7307;DHT22;3694;48.732;9.248;2022-09-09T04:14:30;12.10;99.90
7307;DHT22;3694;48.732;9.248;2022-09-09T04:16:55;12.00;99.90
7307;DHT22;3694;48.732;9.248;2022-09-09T04:19:23;12.00;99.90
7307;DHT22;3694;48.732;9.248;2022-09-09T04:21:49;12.00;99.90
7307;DHT22;3694;48.732;9.248;2022-09-09T04:24:16;12.00;99.90
7307;DHT22;3694;48.732;9.248;2022-09-09T04:26:42;11.90;99.90
7307;DHT22;3694;48.732;9.248;2022-09-09T04:29:08;11.90;99.90
7307;DHT22;3694;48.732;9.248;2022-09-09T04:31:35;12.00;99.90
7307;DHT22;3694;48.732;9.248;2022-09-09T04:34:00;12.10;99.90
7307;DHT22;3694;48.732;9.248;2022-09-09T04:36:31;12.10;99.90
7307;DHT22;3694;48.732;9.248;2022-09-09T04:38:57;12.20;99.90
7307;DHT22;3694;48.732;9.248;2022-09-09T04:41:23;12.40;99.90
7307;DHT22;3694;48.732;9.248;2022-09-09T04:43:49;12.50;99.90
7307;DHT22;3694;48.732;9.248;2022-09-09T04:46:14;12.70;99.90
7307;DHT22;3694;48.732;9.248;2022-09-09T04:48:42;12.90;99.90
7307;DHT22;3694;48.732;9.248;2022-09-09T04:51:10;12.90;99.90
7307;DHT22;3694;48.732;9.248;2022-09-09T04:53:36;12.90;99.90
7307;DHT22;3694;48.732;9.248;2022-09-09T04:56:08;13.00;99.90
7307;DHT22;3694;48.732;9.248;2022-09-09T04:58:35;13.10;99.90
7307;DHT22;3694;48.732;9.248;2022-09-09T05:01:05;13.10;99.90
7307;DHT22;3694;48.732;9.248;2022-09-09T05:03:31;13.10;99.90
7307;DHT22;3694;48.732;9.248;2022-09-09T05:06:06;12.90;99.90
7307;DHT22;3694;48.732;9.248;2022-09-09T05:08:33;12.90;99.90
7307;DHT22;3694;48.732;9.248;2022-09-09T05:10:59;12.80;99.90
7307;DHT22;3694;48.732;9.248;2022-09-09T05:13:26;12.70;99.90
7307;DHT22;3694;48.732;9.248;2022-09-09T05:15:55;12.70;99.90
7307;DHT22;3694;48.732;9.248;2022-09-09T05:18:21;12.70;99.90
7307;DHT22;3694;48.732;9.248;2022-09-09T05:20:48;12.80;99.90
7307;DHT22;3694;48.732;9.248;2022-09-09T05:23:14;12.80;99.90
7307;DHT22;3694;48.732;9.248;2022-09-09T05:25:39;12.90;99.90
7307;DHT22;3694;48.732;9.248;2022-09-09T05:28:07;13.00;99.90
7307;DHT22;3694;48.732;9.248;2022-09-09T05:30:33;13.20;99.90
7307;DHT22;3694;48.732;9.248;2022-09-09T05:32:59;13.40;99.90
7307;DHT22;3694;48.732;9.248;2022-09-09T05:35:25;13.50;99.90
7307;DHT22;3694;48.732;9.248;2022-09-09T05:37:50;13.70;99.90
7307;DHT22;3694;48.732;9.248;2022-09-09T05:40:16;13.90;99.90
7307;DHT22;3694;48.732;9.248;2022-09-09T05:42:41;14.00;99.90
7307;DHT22;3694;48.732;9.248;2022-09-09T05:45:08;14.10;99.90
7307;DHT22;3694;48.732;9.248;2022-09-09T05:47:34;14.20;99.90
7307;DHT22;3694;48.732;9.248;2022-09-09T05:50:00;14.30;99.90
7307;DHT22;3694;48.732;9.248;2022-09-09T05:52:26;14.40;99.90
7307;DHT22;3694;48.732;9.248;2022-09-09T05:54:52;14.20;99.90
7307;DHT22;3694;48.732;9.248;2022-09-09T05:57:19;14.40;99.90
7307;DHT22;3694;48.732;9.248;2022-09-09T05:59:45;14.60;99.90
7307;DHT22;3694;48.732;9.248;2022-09-09T06:02:11;14.60;99.90
7307;DHT22;3694;48.732;9.248;2022-09-09T06:04:37;14.60;99.90
7307;DHT22;3694;48.732;9.248;2022-09-09T06:07:05;14.70;99.90
7307;DHT22;3694;48.732;9.248;2022-09-09T06:09:30;14.70;99.90
7307;DHT22;3694;48.732;9.248;2022-09-09T06:11:56;14.80;99.90
7307;DHT22;3694;48.732;9.248;2022-09-09T06:14:23;14.80;99.90
7307;DHT22;3694;48.732;9.248;2022-09-09T06:16:50;14.90;99.90
7307;DHT22;3694;48.732;9.248;2022-09-09T06:19:16;14.90;99.90
7307;DHT22;3694;48.732;9.248;2022-09-09T06:21:42;15.00;99.90
7307;DHT22;3694;48.732;9.248;2022-09-09T06:24:07;15.00;99.90
7307;DHT22;3694;48.732;9.248;2022-09-09T06:26:35;15.10;99.90
7307;DHT22;3694;48.732;9.248;2022-09-09T06:29:03;15.10;99.90
7307;DHT22;3694;48.732;9.248;2022-09-09T06:31:31;15.10;99.90
7307;DHT22;3694;48.732;9.248;2022-09-09T06:33:58;15.30;99.90
7307;DHT22;3694;48.732;9.248;2022-09-09T06:36:32;15.40;99.90
7307;DHT22;3694;48.732;9.248;2022-09-09T06:38:59;15.70;99.90
7307;DHT22;3694;48.732;9.248;2022-09-09T06:41:28;15.80;99.90
7307;DHT22;3694;48.732;9.248;2022-09-09T06:43:53;15.90;99.90
7307;DHT22;3694;48.732;9.248;2022-09-09T06:46:22;16.00;99.90
7307;DHT22;3694;48.732;9.248;2022-09-09T06:48:48;16.10;99.90
7307;DHT22;3694;48.732;9.248;2022-09-09T06:51:21;16.20;99.90
7307;DHT22;3694;48.732;9.248;2022-09-09T06:53:50;16.30;99.90
7307;DHT22;3694;48.732;9.248;2022-09-09T06:56:24;16.40;99.90
7307;DHT22;3694;48.732;9.248;2022-09-09T06:58:52;16.70;99.90
7307;DHT22;3694;48.732;9.248;2022-09-09T07:01:29;17.00;99.90
7307;DHT22;3694;48.732;9.248;2022-09-09T07:03:56;17.10;99.10
7307;DHT22;3694;48.732;9.248;2022-09-09T07:06:26;17.20;99.40
7307;DHT22;3694;48.732;9.248;2022-09-09T07:08:54;17.70;98.80
7307;DHT22;3694;48.732;9.248;2022-09-09T07:11:21;17.70;97.90
7307;DHT22;3694;48.732;9.248;2022-09-09T07:13:48;18.10;98.40
7307;DHT22;3694;48.732;9.248;2022-09-09T07:16:19;18.30;97.70
7307;DHT22;3694;48.732;9.248;2022-09-09T07:18:45;18.40;97.10
7307;DHT22;3694;48.732;9.248;2022-09-09T07:21:13;18.40;97.60
7307;DHT22;3694;48.732;9.248;2022-09-09T07:23:39;18.50;97.30
7307;DHT22;3694;48.732;9.248;2022-09-09T07:26:17;18.50;97.00
7307;DHT22;3694;48.732;9.248;2022-09-09T07:28:44;18.80;96.90
7307;DHT22;3694;48.732;9.248;2022-09-09T07:31:25;18.80;96.40
7307;DHT22;3694;48.732;9.248;2022-09-09T07:33:51;18.70;96.00
7307;DHT22;3694;48.732;9.248;2022-09-09T07:36:20;18.90;96.20
7307;DHT22;3694;48.732;9.248;2022-09-09T07:38:55;19.10;95.60
7307;DHT22;3694;48.732;9.248;2022-09-09T07:41:24;19.70;95.60
7307;DHT22;3694;48.732;9.248;2022-09-09T07:43:51;19.90;94.30
7307;DHT22;3694;48.732;9.248;2022-09-09T07:46:19;19.60;93.80
7307;DHT22;3694;48.732;9.248;2022-09-09T07:48:47;19.80;94.20
7307;DHT22;3694;48.732;9.248;2022-09-09T07:51:17;20.90;93.90
7307;DHT22;3694;48.732;9.248;2022-09-09T07:53:46;21.90;92.30
7307;DHT22;3694;48.732;9.248;2022-09-09T07:56:14;21.80;90.00
7307;DHT22;3694;48.732;9.248;2022-09-09T07:58:44;21.80;90.90
7307;DHT22;3694;48.732;9.248;2022-09-09T08:01:24;22.20;89.90
7307;DHT22;3694;48.732;9.248;2022-09-09T08:04:02;22.60;89.60
7307;DHT22;3694;48.732;9.248;2022-09-09T08:06:30;23.10;86.70
7307;DHT22;3694;48.732;9.248;2022-09-09T08:08:56;23.30;84.90
7307;DHT22;3694;48.732;9.248;2022-09-09T08:11:23;23.40;85.50
7307;DHT22;3694;48.732;9.248;2022-09-09T08:13:50;23.20;84.30
7307;DHT22;3694;48.732;9.248;2022-09-09T08:16:25;22.70;83.50
7307;DHT22;3694;48.732;9.248;2022-09-09T08:18:51;22.30;85.90
7307;DHT22;3694;48.732;9.248;2022-09-09T08:21:20;21.90;84.70
7307;DHT22;3694;48.732;9.248;2022-09-09T08:23:46;21.90;86.70
7307;DHT22;3694;48.732;9.248;2022-09-09T08:26:16;22.40;87.50
7307;DHT22;3694;48.732;9.248;2022-09-09T08:28:43;22.40;85.20
7307;DHT22;3694;48.732;9.248;2022-09-09T08:31:14;22.40;85.00
7307;DHT22;3694;48.732;9.248;2022-09-09T08:33:41;22.80;86.40
7307;DHT22;3694;48.732;9.248;2022-09-09T08:36:10;23.00;83.50
7307;DHT22;3694;48.732;9.248;2022-09-09T08:38:36;23.10;84.40
7307;DHT22;3694;48.732;9.248;2022-09-09T08:43:51;22.90;81.90
7307;DHT22;3694;48.732;9.248;2022-09-09T08:49:14;23.40;82.70
7307;DHT22;3694;48.732;9.248;2022-09-09T08:51:41;23.10;82.30
7307;DHT22;3694;48.732;9.248;2022-09-09T08:54:09;23.60;82.80
7307;DHT22;3694;48.732;9.248;2022-09-09T08:56:36;24.10;80.80
7307;DHT22;3694;48.732;9.248;2022-09-09T08:59:02;23.60;79.90
7307;DHT22;3694;48.732;9.248;2022-09-09T09:01:41;23.50;79.40
7307;DHT22;3694;48.732;9.248;2022-09-09T09:12:53;21.90;79.60
7307;DHT22;3694;48.732;9.248;2022-09-09T09:15:29;22.20;78.30
7307;DHT22;3694;48.732;9.248;2022-09-09T09:17:56;22.10;77.70
7307;DHT22;3694;48.732;9.248;2022-09-09T09:20:36;22.60;80.30
7307;DHT22;3694;48.732;9.248;2022-09-09T09:23:05;23.20;80.80
7307;DHT22;3694;48.732;9.248;2022-09-09T09:25:38;23.90;79.00
7307;DHT22;3694;48.732;9.248;2022-09-09T09:28:22;24.40;78.20
7307;DHT22;3694;48.732;9.248;2022-09-09T09:31:06;24.70;77.80
7307;DHT22;3694;48.732;9.248;2022-09-09T09:33:49;24.00;76.40
7307;DHT22;3694;48.732;9.248;2022-09-09T09:36:16;18.10;96.60
7307;DHT22;3694;48.732;9.248;2022-09-09T09:38:53;15.50;99.90
7307;DHT22;3694;48.732;9.248;2022-09-09T09:41:36;15.10;99.90
7307;DHT22;3694;48.732;9.248;2022-09-09T09:44:05;15.20;99.90
7307;DHT22;3694;48.732;9.248;2022-09-09T09:46:31;15.30;99.90
7307;DHT22;3694;48.732;9.248;2022-09-09T09:49:05;16.00;99.90
7307;DHT22;3694;48.732;9.248;2022-09-09T09:51:34;15.90;99.90
7307;DHT22;3694;48.732;9.248;2022-09-09T09:56:38;17.00;99.90
7307;DHT22;3694;48.732;9.248;2022-09-09T09:59:05;17.60;99.90
7307;DHT22;3694;48.732;9.248;2022-09-09T10:01:32;17.90;99.90
7307;DHT22;3694;48.732;9.248;2022-09-09T10:04:01;18.00;99.90
7307;DHT22;3694;48.732;9.248;2022-09-09T10:06:35;18.30;99.90
7307;DHT22;3694;48.732;9.248;2022-09-09T10:09:17;18.40;99.70
7307;DHT22;3694;48.732;9.248;2022-09-09T10:14:50;19.20;99.60
7307;DHT22;3694;48.732;9.248;2022-09-09T10:20:31;19.20;97.40
7307;DHT22;3694;48.732;9.248;2022-09-09T10:23:11;18.80;98.90
7307;DHT22;3694;48.732;9.248;2022-09-09T10:25:54;18.40;99.00
7307;DHT22;3694;48.732;9.248;2022-09-09T10:28:40;18.20;99.90
7307;DHT22;3694;48.732;9.248;2022-09-09T10:31:24;18.80;99.90
7307;DHT22;3694;48.732;9.248;2022-09-09T10:36:56;20.10;99.00
7307;DHT22;3694;48.732;9.248;2022-09-09T10:39:42;20.70;97.20
7307;DHT22;3694;48.732;9.248;2022-09-09T10:42:16;21.00;95.40
7307;DHT22;3694;48.732;9.248;2022-09-09T10:47:44;20.20;93.70
7307;DHT22;3694;48.732;9.248;2022-09-09T10:55:53;21.40;94.10
7307;DHT22;3694;48.732;9.248;2022-09-09T10:58:38;21.60;90.10
7307;DHT22;3694;48.732;9.248;2022-09-09T11:01:15;22.20;92.50
7307;DHT22;3694;48.732;9.248;2022-09-09T11:03:43;22.80;91.40
7307;DHT22;3694;48.732;9.248;2022-09-09T11:06:20;23.80;90.40
7307;DHT22;3694;48.732;9.248;2022-09-09T11:08:51;24.20;86.70
7307;DHT22;3694;48.732;9.248;2022-09-09T11:11:36;23.90;86.00
7307;DHT22;3694;48.732;9.248;2022-09-09T11:19:30;22.60;86.50
7307;DHT22;3694;48.732;9.248;2022-09-09T11:22:01;22.30;84.60
7307;DHT22;3694;48.732;9.248;2022-09-09T11:24:47;22.00;84.50
7307;DHT22;3694;48.732;9.248;2022-09-09T11:33:03;21.00;88.40
7307;DHT22;3694;48.732;9.248;2022-09-09T11:38:48;19.10;88.20
7307;DHT22;3694;48.732;9.248;2022-09-09T11:41:17;18.10;92.30
7307;DHT22;3694;48.732;9.248;2022-09-09T11:43:51;17.60;93.40
7307;DHT22;3694;48.732;9.248;2022-09-09T11:46:22;17.50;95.40
7307;DHT22;3694;48.732;9.248;2022-09-09T11:49:01;17.40;95.20
7307;DHT22;3694;48.732;9.248;2022-09-09T11:51:29;17.70;93.70
7307;DHT22;3694;48.732;9.248;2022-09-09T11:54:00;18.50;93.70
7307;DHT22;3694;48.732;9.248;2022-09-09T11:56:32;19.10;93.70
7307;DHT22;3694;48.732;9.248;2022-09-09T12:02:01;19.10;89.40
7307;DHT22;3694;48.732;9.248;2022-09-09T12:04:33;19.60;90.60
7307;DHT22;3694;48.732;9.248;2022-09-09T12:10:04;20.80;87.90
7307;DHT22;3694;48.732;9.248;2022-09-09T12:12:35;21.00;81.60
7307;DHT22;3694;48.732;9.248;2022-09-09T12:17:29;20.20;82.10
7307;DHT22;3694;48.732;9.248;2022-09-09T12:20:15;19.80;81.10
7307;DHT22;3694;48.732;9.248;2022-09-09T12:25:34;20.20;83.10
7307;DHT22;3694;48.732;9.248;2022-09-09T12:28:20;20.40;81.90
7307;DHT22;3694;48.732;9.248;2022-09-09T12:31:01;20.60;80.20
7307;DHT22;3694;48.732;9.248;2022-09-09T12:33:37;21.00;79.60
7307;DHT22;3694;48.732;9.248;2022-09-09T12:36:11;21.40;79.30
7307;DHT22;3694;48.732;9.248;2022-09-09T12:38:39;21.20;77.90
7307;DHT22;3694;48.732;9.248;2022-09-09T12:41:05;21.30;75.90
7307;DHT22;3694;48.732;9.248;2022-09-09T12:43:31;21.40;75.20
7307;DHT22;3694;48.732;9.248;2022-09-09T12:46:02;21.30;75.40
7307;DHT22;3694;48.732;9.248;2022-09-09T12:48:36;21.20;75.80
7307;DHT22;3694;48.732;9.248;2022-09-09T12:51:04;21.40;75.40
7307;DHT22;3694;48.732;9.248;2022-09-09T12:53:34;21.00;74.00
7307;DHT22;3694;48.732;9.248;2022-09-09T12:56:01;20.70;74.40
7307;DHT22;3694;48.732;9.248;2022-09-09T12:58:30;20.70;75.10
7307;DHT22;3694;48.732;9.248;2022-09-09T13:01:01;20.70;75.30
7307;DHT22;3694;48.732;9.248;2022-09-09T13:03:28;20.80;75.60
7307;DHT22;3694;48.732;9.248;2022-09-09T13:05:58;20.50;74.50
7307;DHT22;3694;48.732;9.248;2022-09-09T13:08:25;20.60;75.20
7307;DHT22;3694;48.732;9.248;2022-09-09T13:11:01;20.50;77.10
7307;DHT22;3694;48.732;9.248;2022-09-09T13:13:29;19.90;76.10
7307;DHT22;3694;48.732;9.248;2022-09-09T13:15:57;19.70;76.90
7307;DHT22;3694;48.732;9.248;2022-09-09T13:18:30;19.70;77.50
7307;DHT22;3694;48.732;9.248;2022-09-09T13:20:56;19.80;76.80
7307;DHT22;3694;48.732;9.248;2022-09-09T13:23:27;19.90;76.30
7307;DHT22;3694;48.732;9.248;2022-09-09T13:26:01;20.40;77.30
7307;DHT22;3694;48.732;9.248;2022-09-09T13:28:29;20.50;75.00
7307;DHT22;3694;48.732;9.248;2022-09-09T13:31:02;20.90;75.70
7307;DHT22;3694;48.732;9.248;2022-09-09T13:33:36;21.60;74.60
7307;DHT22;3694;48.732;9.248;2022-09-09T13:36:10;21.80;74.60
7307;DHT22;3694;48.732;9.248;2022-09-09T13:38:57;22.40;72.40
7307;DHT22;3694;48.732;9.248;2022-09-09T13:41:34;22.60;73.20
7307;DHT22;3694;48.732;9.248;2022-09-09T13:44:01;22.90;73.10
7307;DHT22;3694;48.732;9.248;2022-09-09T13:46:35;22.80;71.90
7307;DHT22;3694;48.732;9.248;2022-09-09T13:51:41;22.20;70.40
7307;DHT22;3694;48.732;9.248;2022-09-09T13:54:11;21.90;71.40
7307;DHT22;3694;48.732;9.248;2022-09-09T13:56:39;21.90;73.30
7307;DHT22;3694;48.732;9.248;2022-09-09T13:59:09;22.10;73.20
7307;DHT22;3694;48.732;9.248;2022-09-09T14:01:35;22.20;72.70
7307;DHT22;3694;48.732;9.248;2022-09-09T14:04:03;22.60;72.90
7307;DHT22;3694;48.732;9.248;2022-09-09T14:06:29;22.40;71.20
7307;DHT22;3694;48.732;9.248;2022-09-09T14:08:55;21.90;70.10
7307;DHT22;3694;48.732;9.248;2022-09-09T14:11:21;21.80;72.20
7307;DHT22;3694;48.732;9.248;2022-09-09T14:13:47;21.60;70.00
7307;DHT22;3694;48.732;9.248;2022-09-09T14:16:16;21.80;70.90
7307;DHT22;3694;48.732;9.248;2022-09-09T14:18:43;22.10;71.20
7307;DHT22;3694;48.732;9.248;2022-09-09T14:21:09;22.10;69.30
7307;DHT22;3694;48.732;9.248;2022-09-09T14:23:35;21.70;68.60
7307;DHT22;3694;48.732;9.248;2022-09-09T14:26:01;21.50;69.00
7307;DHT22;3694;48.732;9.248;2022-09-09T14:28:27;21.20;68.90
7307;DHT22;3694;48.732;9.248;2022-09-09T14:30:53;21.00;68.90
7307;DHT22;3694;48.732;9.248;2022-09-09T14:33:19;21.00;69.30
7307;DHT22;3694;48.732;9.248;2022-09-09T14:35:44;20.90;70.00
7307;DHT22;3694;48.732;9.248;2022-09-09T14:38:10;20.70;68.30
7307;DHT22;3694;48.732;9.248;2022-09-09T14:40:37;20.60;68.60
7307;DHT22;3694;48.732;9.248;2022-09-09T14:43:03;20.90;68.60
7307;DHT22;3694;48.732;9.248;2022-09-09T14:45:29;21.20;68.90
7307;DHT22;3694;48.732;9.248;2022-09-09T14:47:54;21.50;68.20
7307;DHT22;3694;48.732;9.248;2022-09-09T14:50:21;21.40;64.90
7307;DHT22;3694;48.732;9.248;2022-09-09T14:52:47;21.20;64.00
7307;DHT22;3694;48.732;9.248;2022-09-09T14:55:13;21.10;65.30
7307;DHT22;3694;48.732;9.248;2022-09-09T14:57:38;21.20;65.60
7307;DHT22;3694;48.732;9.248;2022-09-09T15:00:06;21.10;65.00
7307;DHT22;3694;48.732;9.248;2022-09-09T15:02:33;21.20;65.30
7307;DHT22;3694;48.732;9.248;2022-09-09T15:04:58;21.20;65.70
7307;DHT22;3694;48.732;9.248;2022-09-09T15:07:24;21.30;65.70
7307;DHT22;3694;48.732;9.248;2022-09-09T15:09:50;21.10;65.00
7307;DHT22;3694;48.732;9.248;2022-09-09T15:12:17;21.10;65.60
7307;DHT22;3694;48.732;9.248;2022-09-09T15:14:44;21.00;65.00
7307;DHT22;3694;48.732;9.248;2022-09-09T15:17:10;21.00;64.80
7307;DHT22;3694;48.732;9.248;2022-09-09T15:19:36;21.20;65.60
7307;DHT22;3694;48.732;9.248;2022-09-09T15:22:03;21.10;65.40
7307;DHT22;3694;48.732;9.248;2022-09-09T15:24:30;21.00;64.80
7307;DHT22;3694;48.732;9.248;2022-09-09T15:26:56;21.00;65.60
7307;DHT22;3694;48.732;9.248;2022-09-09T15:29:23;21.10;65.40
7307;DHT22;3694;48.732;9.248;2022-09-09T15:31:48;21.00;65.90
7307;DHT22;3694;48.732;9.248;2022-09-09T15:34:14;21.10;66.00
7307;DHT22;3694;48.732;9.248;2022-09-09T15:36:44;21.10;66.10
7307;DHT22;3694;48.732;9.248;2022-09-09T15:39:13;21.20;66.60
7307;DHT22;3694;48.732;9.248;2022-09-09T15:41:41;21.00;65.90
7307;DHT22;3694;48.732;9.248;2022-09-09T15:44:07;20.90;66.90
7307;DHT22;3694;48.732;9.248;2022-09-09T15:46:42;20.60;66.90
7307;DHT22;3694;48.732;9.248;2022-09-09T15:49:19;20.40;66.70
7307;DHT22;3694;48.732;9.248;2022-09-09T15:51:47;20.20;66.80
7307;DHT22;3694;48.732;9.248;2022-09-09T15:54:17;19.90;66.80
7307;DHT22;3694;48.732;9.248;2022-09-09T15:56:44;20.00;66.70
7307;DHT22;3694;48.732;9.248;2022-09-09T15:59:10;19.60;66.90
7307;DHT22;3694;48.732;9.248;2022-09-09T16:01:37;19.40;65.80
7307;DHT22;3694;48.732;9.248;2022-09-09T16:04:04;19.30;66.40
7307;DHT22;3694;48.732;9.248;2022-09-09T16:06:30;19.30;66.20
7307;DHT22;3694;48.732;9.248;2022-09-09T16:08:58;19.20;66.50
7307;DHT22;3694;48.732;9.248;2022-09-09T16:11:30;19.10;67.20
7307;DHT22;3694;48.732;9.248;2022-09-09T16:13:56;19.10;67.40
7307;DHT22;3694;48.732;9.248;2022-09-09T16:16:25;19.10;67.50
7307;DHT22;3694;48.732;9.248;2022-09-09T16:18:59;19.10;67.80
7307;DHT22;3694;48.732;9.248;2022-09-09T16:21:28;19.00;67.90
7307;DHT22;3694;48.732;9.248;2022-09-09T16:23:59;19.00;68.10
7307;DHT22;3694;48.732;9.248;2022-09-09T16:26:25;19.00;68.70
7307;DHT22;3694;48.732;9.248;2022-09-09T16:28:51;19.00;68.60
7307;DHT22;3694;48.732;9.248;2022-09-09T16:31:21;18.90;68.70
7307;DHT22;3694;48.732;9.248;2022-09-09T16:33:48;18.90;69.40
7307;DHT22;3694;48.732;9.248;2022-09-09T16:36:16;18.90;69.70
7307;DHT22;3694;48.732;9.248;2022-09-09T16:38:43;18.90;69.80
7307;DHT22;3694;48.732;9.248;2022-09-09T16:41:10;18.80;69.60
7307;DHT22;3694;48.732;9.248;2022-09-09T16:43:36;18.80;69.70
7307;DHT22;3694;48.732;9.248;2022-09-09T16:46:18;18.80;69.40
7307;DHT22;3694;48.732;9.248;2022-09-09T16:48:45;18.70;68.80
7307;DHT22;3694;48.732;9.248;2022-09-09T16:53:43;18.80;70.80
7307;DHT22;3694;48.732;9.248;2022-09-09T16:56:18;18.80;70.70
7307;DHT22;3694;48.732;9.248;2022-09-09T16:58:49;18.60;71.50
7307;DHT22;3694;48.732;9.248;2022-09-09T17:01:15;18.70;71.60
7307;DHT22;3694;48.732;9.248;2022-09-09T17:03:41;18.40;70.90
7307;DHT22;3694;48.732;9.248;2022-09-09T17:06:14;18.30;70.40
7307;DHT22;3694;48.732;9.248;2022-09-09T17:08:41;18.10;71.80
7307;DHT22;3694;48.732;9.248;2022-09-09T17:11:15;17.90;72.00
7307;DHT22;3694;48.732;9.248;2022-09-09T17:13:45;17.80;71.90
7307;DHT22;3694;48.732;9.248;2022-09-09T17:16:12;17.70;72.20
7307;DHT22;3694;48.732;9.248;2022-09-09T17:18:38;17.60;72.00
7307;DHT22;3694;48.732;9.248;2022-09-09T17:21:05;17.40;71.70
7307;DHT22;3694;48.732;9.248;2022-09-09T17:23:33;17.30;71.30
7307;DHT22;3694;48.732;9.248;2022-09-09T17:25:59;17.10;71.80
7307;DHT22;3694;48.732;9.248;2022-09-09T17:28:26;17.00;72.30
7307;DHT22;3694;48.732;9.248;2022-09-09T17:30:59;16.80;73.30
7307;DHT22;3694;48.732;9.248;2022-09-09T17:33:30;16.60;73.40
7307;DHT22;3694;48.732;9.248;2022-09-09T17:35:57;16.50;74.20
7307;DHT22;3694;48.732;9.248;2022-09-09T17:38:24;16.30;75.10
7307;DHT22;3694;48.732;9.248;2022-09-09T17:41:00;16.20;75.50
7307;DHT22;3694;48.732;9.248;2022-09-09T17:43:25;16.10;76.10
7307;DHT22;3694;48.732;9.248;2022-09-09T17:45:51;15.90;77.40